createdAt,value
2022-11-25T00:00:03.937Z,5.42
2022-11-25T00:01:29.613Z,5.40
2022-11-25T00:02:11.033Z,5.40
2022-11-25T00:02:52.035Z,5.40
2022-11-25T00:03:32.877Z,5.42
2022-11-25T00:04:13.066Z,5.44
2022-11-25T00:04:52.920Z,5.48
2022-11-25T00:05:35.101Z,5.50
2022-11-25T00:06:32.328Z,5.35
2022-11-25T00:07:19.864Z,5.37
2022-11-25T00:07:54.051Z,5.41
2022-11-25T00:08:41.982Z,5.44
2022-11-25T00:09:20.117Z,5.43
2022-11-25T00:10:06.878Z,5.39
2022-11-25T00:10:47.972Z,5.40
2022-11-25T00:11:42.983Z,5.45
2022-11-25T00:12:36.884Z,5.41
2022-11-25T00:13:30.818Z,5.45
2022-11-25T00:14:27.914Z,5.41
2022-11-25T00:15:23.903Z,5.38
2022-11-25T00:16:16.967Z,5.29
2022-11-25T00:16:51.030Z,5.21
2022-11-25T00:17:37.852Z,5.28
2022-11-25T00:18:11.983Z,5.09
2022-11-25T00:19:01.890Z,5.27
2022-11-25T00:19:35.952Z,5.28
2022-11-25T00:20:22.810Z,5.27
2022-11-25T00:20:56.960Z,5.31
2022-11-25T00:21:40.921Z,5.35
2022-11-25T00:22:22.979Z,5.35
2022-11-25T00:23:02.973Z,5.37
2022-11-25T00:23:43.955Z,5.42
2022-11-25T00:24:24.902Z,5.40
2022-11-25T00:25:05.101Z,5.43
2022-11-25T00:25:44.831Z,5.40
2022-11-25T00:26:26.235Z,5.40
2022-11-25T00:27:06.907Z,5.41
2022-11-25T00:27:46.995Z,5.40
2022-11-25T00:28:27.841Z,5.35
2022-11-25T00:29:11.305Z,5.36
2022-11-25T00:29:51.820Z,5.34
2022-11-25T00:30:31.948Z,5.38
2022-11-25T00:31:30.973Z,5.33
2022-11-25T00:32:19.884Z,5.46
2022-11-25T00:33:13.856Z,5.45
2022-11-25T00:34:08.802Z,5.54
2022-11-25T00:35:02.815Z,5.53
2022-11-25T00:35:56.823Z,5.56
2022-11-25T00:36:51.975Z,5.57
2022-11-25T00:37:39.855Z,5.58
2022-11-25T00:38:13.994Z,5.60
2022-11-25T00:39:01.929Z,5.67
2022-11-25T00:39:36.062Z,5.69
2022-11-25T00:40:22.828Z,5.73
2022-11-25T00:41:18.495Z,5.59
2022-11-25T00:42:24.893Z,5.82
2022-11-25T00:43:25.004Z,5.68
2022-11-25T00:44:38.968Z,5.93
2022-11-25T00:45:34.955Z,5.92
2022-11-25T00:46:29.806Z,5.90
2022-11-25T00:47:27.869Z,5.93
2022-11-25T00:48:21.943Z,5.97
2022-11-25T00:49:02.872Z,5.93
2022-11-25T00:49:44.975Z,5.98
2022-11-25T00:50:25.832Z,5.93
2022-11-25T00:51:05.941Z,5.96
2022-11-25T00:51:46.818Z,5.97
2022-11-25T00:52:31.036Z,5.88
2022-11-25T00:53:11.835Z,5.99
2022-11-25T00:53:57.454Z,6.09
2022-11-25T00:54:39.899Z,6.12
2022-11-25T00:55:21.116Z,6.13
2022-11-25T00:56:36.961Z,6.17
2022-11-25T00:57:19.198Z,6.22
2022-11-25T00:57:59.910Z,6.18
2022-11-25T00:58:40.133Z,6.16
2022-11-25T00:59:20.827Z,6.24
2022-11-25T01:00:01.826Z,6.24
2022-11-25T01:00:36.049Z,6.30
2022-11-25T01:01:23.897Z,6.31
2022-11-25T01:01:59.364Z,6.38
2022-11-25T01:02:46.855Z,6.40
2022-11-25T01:03:22.020Z,6.40
2022-11-25T01:04:09.792Z,6.40
2022-11-25T01:04:44.929Z,6.34
2022-11-25T01:05:25.825Z,6.30
2022-11-25T01:06:10.929Z,6.29
2022-11-25T01:06:51.812Z,6.31
2022-11-25T01:07:34.016Z,6.39
2022-11-25T01:08:14.783Z,6.37
2022-11-25T01:08:55.943Z,6.38
2022-11-25T01:09:37.867Z,6.45
2022-11-25T01:10:18.993Z,6.48
2022-11-25T01:11:09.917Z,6.37
2022-11-25T01:11:51.468Z,6.48
2022-11-25T01:12:32.946Z,6.51
2022-11-25T01:13:13.923Z,6.50
2022-11-25T01:14:00.709Z,6.44
2022-11-25T01:14:41.928Z,6.43
2022-11-25T01:15:22.818Z,6.53
2022-11-25T01:16:03.901Z,6.53
2022-11-25T01:16:44.897Z,6.54
2022-11-25T01:17:25.865Z,6.53
2022-11-25T01:18:06.813Z,6.57
2022-11-25T01:18:46.897Z,6.54
2022-11-25T01:19:27.820Z,6.63
2022-11-25T01:20:07.983Z,6.58
2022-11-25T01:20:48.776Z,6.59
2022-11-25T01:21:32.044Z,6.67
2022-11-25T01:22:14.810Z,6.68
2022-11-25T01:22:54.856Z,6.57
2022-11-25T01:23:35.780Z,6.58
2022-11-25T01:24:16.888Z,6.64
2022-11-25T01:24:57.751Z,6.68
2022-11-25T01:25:37.820Z,6.69
2022-11-25T01:26:21.804Z,6.69
2022-11-25T01:27:04.091Z,6.62
2022-11-25T01:27:49.832Z,6.55
2022-11-25T01:28:29.858Z,6.62
2022-11-25T01:29:13.812Z,6.58
2022-11-25T01:29:54.994Z,6.59
2022-11-25T01:30:40.934Z,6.58
2022-11-25T01:31:26.180Z,6.65
2022-11-25T01:32:06.864Z,6.59
2022-11-25T01:32:48.096Z,6.68
2022-11-25T01:33:28.832Z,6.69
2022-11-25T01:34:14.969Z,6.71
2022-11-25T01:34:55.803Z,6.71
2022-11-25T01:35:36.888Z,6.74
2022-11-25T01:36:22.805Z,6.78
2022-11-25T01:37:03.890Z,6.76
2022-11-25T01:37:44.798Z,6.76
2022-11-25T01:38:25.867Z,6.80
2022-11-25T01:39:07.759Z,6.80
2022-11-25T01:39:47.799Z,6.75
2022-11-25T01:40:28.747Z,6.77
2022-11-25T01:41:12.836Z,6.76
2022-11-25T01:41:54.736Z,6.80
2022-11-25T01:42:37.960Z,6.86
2022-11-25T01:43:21.769Z,6.86
2022-11-25T01:44:42.768Z,6.85
2022-11-25T01:45:36.808Z,6.86
2022-11-25T01:46:41.893Z,6.84
2022-11-25T01:47:37.826Z,6.79
2022-11-25T01:48:46.739Z,6.78
2022-11-25T01:50:04.813Z,6.81
2022-11-25T01:51:00.788Z,6.86
2022-11-25T01:52:15.815Z,6.84
2022-11-25T01:53:10.836Z,6.89
2022-11-25T01:54:05.771Z,6.96
2022-11-25T01:55:21.789Z,6.95
2022-11-25T01:56:17.765Z,6.97
2022-11-25T01:57:28.713Z,6.99
2022-11-25T01:58:28.797Z,6.97
2022-11-25T01:59:22.794Z,7.02
2022-11-25T02:00:20.807Z,7.06
2022-11-25T02:01:01.839Z,7.01
2022-11-25T02:01:43.334Z,7.08
2022-11-25T02:02:25.809Z,7.09
2022-11-25T02:03:05.787Z,7.08
2022-11-25T02:03:51.807Z,7.09
2022-11-25T02:04:39.956Z,6.99
2022-11-25T02:05:28.395Z,7.02
2022-11-25T02:06:30.926Z,6.97
2022-11-25T02:07:20.850Z,6.97
2022-11-25T02:08:01.023Z,6.95
2022-11-25T02:08:41.732Z,6.99
2022-11-25T02:09:22.889Z,7.00
2022-11-25T02:10:03.709Z,7.04
2022-11-25T02:10:45.823Z,7.01
2022-11-25T02:11:21.835Z,6.95
2022-11-25T02:12:10.769Z,7.10
2022-11-25T02:12:48.068Z,6.96
2022-11-25T02:13:35.791Z,7.07
2022-11-25T02:14:17.031Z,7.10
2022-11-25T02:14:58.763Z,7.10
2022-11-25T02:15:40.835Z,7.10
2022-11-25T02:16:20.870Z,7.08
2022-11-25T02:17:02.594Z,7.09
2022-11-25T02:17:42.725Z,7.05
2022-11-25T02:18:23.973Z,7.05
2022-11-25T02:19:04.880Z,7.05
2022-11-25T02:20:00.841Z,7.02
2022-11-25T02:20:40.757Z,6.92
2022-11-25T02:21:34.757Z,6.87
2022-11-25T02:22:15.885Z,6.76
2022-11-25T02:23:32.764Z,6.61
2022-11-25T02:24:43.621Z,6.67
2022-11-25T02:25:40.774Z,6.62
2022-11-25T02:26:14.682Z,6.68
2022-11-25T02:26:55.785Z,6.62
2022-11-25T02:27:30.944Z,6.61
2022-11-25T02:28:19.375Z,6.51
2022-11-25T02:29:00.778Z,6.57
2022-11-25T02:29:35.864Z,6.56
2022-11-25T02:30:10.647Z,6.51
2022-11-25T02:30:52.726Z,6.55
2022-11-25T02:31:31.278Z,6.53
2022-11-25T02:32:12.865Z,6.49
2022-11-25T02:32:54.849Z,6.49
2022-11-25T02:33:35.749Z,6.49
2022-11-25T02:34:16.898Z,6.47
2022-11-25T02:34:57.733Z,6.43
2022-11-25T02:35:45.734Z,6.45
2022-11-25T02:36:28.695Z,6.50
2022-11-25T02:37:08.755Z,6.48
2022-11-25T02:37:49.706Z,6.35
2022-11-25T02:39:02.964Z,6.20
2022-11-25T02:39:44.689Z,6.09
2022-11-25T02:40:24.772Z,6.13
2022-11-25T02:41:37.716Z,6.09
2022-11-25T02:42:18.779Z,5.95
2022-11-25T02:42:59.713Z,6.00
2022-11-25T02:43:39.848Z,5.94
2022-11-25T02:44:20.722Z,5.97
2022-11-25T02:45:01.813Z,5.95
2022-11-25T02:46:10.762Z,6.04
2022-11-25T02:46:51.926Z,6.04
2022-11-25T02:47:31.707Z,5.96
2022-11-25T02:48:23.930Z,6.04
2022-11-25T02:49:10.131Z,5.91
2022-11-25T02:49:58.677Z,5.81
2022-11-25T02:50:32.725Z,5.85
2022-11-25T02:51:21.721Z,5.80
2022-11-25T02:51:55.880Z,5.72
2022-11-25T02:52:42.736Z,5.68
2022-11-25T02:53:16.939Z,5.66
2022-11-25T02:53:57.703Z,5.66
2022-11-25T02:54:31.910Z,5.66
2022-11-25T02:55:06.546Z,5.62
2022-11-25T02:55:47.683Z,5.59
2022-11-25T02:56:25.831Z,5.52
2022-11-25T02:56:59.608Z,5.52
2022-11-25T02:57:40.696Z,5.55
2022-11-25T02:58:14.777Z,5.48
2022-11-25T02:58:48.682Z,5.52
2022-11-25T02:59:29.710Z,5.56
2022-11-25T03:00:03.841Z,5.47
2022-11-25T03:00:37.529Z,5.53
2022-11-25T03:01:18.769Z,5.61
2022-11-25T03:01:52.779Z,5.66
2022-11-25T03:02:26.638Z,5.64
2022-11-25T03:03:07.663Z,5.72
2022-11-25T03:03:42.692Z,5.59
2022-11-25T03:04:17.625Z,5.62
2022-11-25T03:04:58.694Z,5.68
2022-11-25T03:05:32.987Z,5.72
2022-11-25T03:06:08.202Z,5.64
2022-11-25T03:06:49.676Z,5.68
2022-11-25T03:07:23.908Z,5.70
2022-11-25T03:07:57.931Z,5.69
2022-11-25T03:08:38.678Z,5.59
2022-11-25T03:09:13.962Z,5.67
2022-11-25T03:09:48.848Z,5.77
2022-11-25T03:10:29.677Z,5.63
2022-11-25T03:11:03.719Z,5.50
2022-11-25T03:11:56.364Z,5.60
2022-11-25T03:12:37.659Z,5.60
2022-11-25T03:13:13.765Z,5.59
2022-11-25T03:13:48.415Z,5.62
2022-11-25T03:14:29.646Z,5.59
2022-11-25T03:15:03.766Z,5.64
2022-11-25T03:15:44.655Z,5.68
2022-11-25T03:16:24.724Z,5.67
2022-11-25T03:17:04.636Z,5.68
2022-11-25T03:17:44.854Z,5.67
2022-11-25T03:18:25.652Z,5.58
2022-11-25T03:19:05.808Z,5.68
2022-11-25T03:19:46.621Z,5.73
2022-11-25T03:20:27.761Z,5.65
2022-11-25T03:21:07.761Z,5.65
2022-11-25T03:21:47.760Z,5.71
2022-11-25T03:22:28.656Z,5.67
2022-11-25T03:23:10.914Z,5.64
2022-11-25T03:23:51.629Z,5.66
2022-11-25T03:24:33.076Z,5.67
2022-11-25T03:25:14.612Z,5.60
2022-11-25T03:25:55.839Z,5.53
2022-11-25T03:26:36.693Z,5.45
2022-11-25T03:27:17.734Z,5.40
2022-11-25T03:27:59.666Z,5.36
2022-11-25T03:28:40.732Z,5.33
2022-11-25T03:29:20.646Z,5.45
2022-11-25T03:30:01.691Z,5.44
2022-11-25T03:30:41.658Z,5.41
2022-11-25T03:31:22.793Z,5.16
2022-11-25T03:32:08.190Z,5.37
2022-11-25T03:32:50.738Z,5.28
2022-11-25T03:33:30.603Z,5.27
2022-11-25T03:34:11.815Z,5.32
2022-11-25T03:34:51.629Z,5.33
2022-11-25T03:35:32.767Z,5.32
2022-11-25T03:36:13.651Z,5.22
2022-11-25T03:36:54.717Z,5.26
2022-11-25T03:37:42.679Z,5.13
2022-11-25T03:38:16.885Z,5.17
2022-11-25T03:39:03.647Z,5.20
2022-11-25T03:39:37.675Z,5.17
2022-11-25T03:40:25.660Z,5.24
2022-11-25T03:40:59.983Z,5.23
2022-11-25T03:41:46.608Z,5.20
2022-11-25T03:42:20.663Z,5.27
2022-11-25T03:43:08.671Z,5.33
2022-11-25T03:43:42.792Z,5.25
2022-11-25T03:44:29.701Z,5.32
2022-11-25T03:45:03.740Z,5.25
2022-11-25T03:45:50.659Z,5.27
2022-11-25T03:46:24.853Z,5.29
2022-11-25T03:47:12.611Z,5.32
2022-11-25T03:47:48.927Z,5.28
2022-11-25T03:48:29.644Z,5.28
2022-11-25T03:49:10.700Z,5.41
2022-11-25T03:49:52.606Z,5.39
2022-11-25T03:50:32.726Z,5.44
2022-11-25T03:51:13.717Z,5.46
2022-11-25T03:51:55.684Z,5.47
2022-11-25T03:52:36.623Z,5.48
2022-11-25T03:53:16.674Z,5.37
2022-11-25T03:53:57.657Z,5.37
2022-11-25T03:54:38.066Z,5.40
2022-11-25T03:55:19.613Z,5.43
2022-11-25T03:56:00.042Z,5.45
2022-11-25T03:56:40.632Z,5.51
2022-11-25T03:57:20.745Z,5.53
2022-11-25T03:58:01.635Z,5.47
2022-11-25T03:58:42.884Z,5.49
2022-11-25T03:59:23.650Z,5.53
2022-11-25T04:00:03.724Z,5.49
2022-11-25T04:00:45.595Z,5.52
2022-11-25T04:01:26.939Z,5.54
2022-11-25T04:02:08.611Z,5.64
2022-11-25T04:02:48.690Z,5.68
2022-11-25T04:03:29.666Z,5.71
2022-11-25T04:04:11.016Z,5.63
2022-11-25T04:04:51.631Z,5.55
2022-11-25T04:05:32.644Z,5.63
2022-11-25T04:06:13.562Z,5.64
2022-11-25T04:06:53.732Z,5.59
2022-11-25T04:07:33.734Z,5.50
2022-11-25T04:08:13.715Z,5.51
2022-11-25T04:08:54.592Z,5.56
2022-11-25T04:09:34.671Z,5.51
2022-11-25T04:10:16.637Z,5.56
2022-11-25T04:10:57.789Z,5.50
2022-11-25T04:11:56.655Z,5.55
2022-11-25T04:12:48.965Z,5.60
2022-11-25T04:13:29.628Z,5.57
2022-11-25T04:14:23.602Z,5.55
2022-11-25T04:15:18.610Z,5.54
2022-11-25T04:16:12.630Z,5.57
2022-11-25T04:17:07.673Z,5.55
2022-11-25T04:18:02.579Z,5.44
2022-11-25T04:18:56.634Z,5.56
2022-11-25T04:19:50.706Z,5.54
2022-11-25T04:20:37.593Z,5.60
2022-11-25T04:21:11.696Z,5.63
2022-11-25T04:21:59.590Z,5.66
2022-11-25T04:22:33.787Z,5.62
2022-11-25T04:23:21.558Z,5.65
2022-11-25T04:23:56.205Z,5.66
2022-11-25T04:24:44.740Z,5.55
2022-11-25T04:25:19.676Z,5.59
2022-11-25T04:25:59.667Z,5.58
2022-11-25T04:26:41.044Z,5.54
2022-11-25T04:27:22.563Z,5.59
2022-11-25T04:28:02.725Z,5.56
2022-11-25T04:28:43.600Z,5.58
2022-11-25T04:29:24.755Z,5.46
2022-11-25T04:30:05.600Z,5.46
2022-11-25T04:30:46.787Z,5.52
2022-11-25T04:31:27.560Z,5.49
2022-11-25T04:32:07.659Z,5.50
2022-11-25T04:32:48.577Z,5.52
2022-11-25T04:33:28.782Z,5.51
2022-11-25T04:34:08.515Z,5.54
2022-11-25T04:34:50.814Z,5.59
2022-11-25T04:35:31.575Z,5.55
2022-11-25T04:36:13.118Z,5.67
2022-11-25T04:36:54.638Z,5.64
2022-11-25T04:37:35.793Z,5.68
2022-11-25T04:38:16.581Z,5.76
2022-11-25T04:38:57.778Z,5.81
2022-11-25T04:39:38.571Z,5.68
2022-11-25T04:40:19.585Z,5.69
2022-11-25T04:40:59.576Z,5.72
2022-11-25T04:41:39.768Z,5.78
2022-11-25T04:42:38.603Z,5.78
2022-11-25T04:43:18.640Z,5.80
2022-11-25T04:43:59.568Z,5.81
2022-11-25T04:44:40.651Z,5.79
2022-11-25T04:45:24.175Z,5.81
2022-11-25T04:46:20.202Z,5.82
2022-11-25T04:47:01.607Z,5.87
2022-11-25T04:47:48.563Z,5.83
2022-11-25T04:48:43.580Z,5.98
2022-11-25T04:49:37.521Z,5.99
2022-11-25T04:50:35.560Z,5.92
2022-11-25T04:51:30.658Z,5.94
2022-11-25T04:52:24.596Z,5.96
2022-11-25T04:53:11.567Z,6.00
2022-11-25T04:53:45.840Z,6.07
2022-11-25T04:54:32.596Z,6.07
2022-11-25T04:55:07.612Z,6.11
2022-11-25T04:55:55.561Z,5.99
2022-11-25T04:56:29.644Z,6.07
2022-11-25T04:57:21.546Z,6.13
2022-11-25T04:57:55.681Z,6.07
2022-11-25T04:58:54.696Z,6.10
2022-11-25T04:59:41.278Z,6.13
2022-11-25T05:00:23.562Z,6.08
2022-11-25T05:01:03.783Z,6.11
2022-11-25T05:01:43.624Z,6.13
2022-11-25T05:02:28.741Z,6.13
2022-11-25T05:03:09.690Z,6.07
2022-11-25T05:03:54.477Z,6.07
2022-11-25T05:04:38.627Z,6.19
2022-11-25T05:05:19.570Z,6.19
2022-11-25T05:05:59.552Z,6.13
2022-11-25T05:06:39.648Z,6.11
2022-11-25T05:07:21.552Z,6.17
2022-11-25T05:08:02.744Z,6.16
2022-11-25T05:08:43.507Z,6.04
2022-11-25T05:09:24.605Z,6.17
2022-11-25T05:10:05.573Z,6.20
2022-11-25T05:10:45.870Z,6.20
2022-11-25T05:11:26.555Z,6.17
2022-11-25T05:12:07.659Z,6.10
2022-11-25T05:12:48.525Z,6.19
2022-11-25T05:13:28.631Z,6.25
2022-11-25T05:14:09.528Z,6.24
2022-11-25T05:15:04.543Z,6.20
2022-11-25T05:15:45.522Z,6.23
2022-11-25T05:16:25.855Z,6.20
2022-11-25T05:17:06.586Z,6.17
2022-11-25T05:17:47.585Z,6.19
2022-11-25T05:18:28.639Z,6.18
2022-11-25T05:19:08.652Z,6.18
2022-11-25T05:19:48.542Z,6.09
2022-11-25T05:20:29.554Z,5.96
2022-11-25T05:21:11.788Z,5.94
2022-11-25T05:21:59.646Z,6.08
2022-11-25T05:22:39.732Z,6.05
2022-11-25T05:23:26.544Z,6.01
2022-11-25T05:24:01.661Z,6.08
2022-11-25T05:24:49.516Z,6.08
2022-11-25T05:25:24.976Z,5.97
2022-11-25T05:26:09.600Z,6.09
2022-11-25T05:26:49.555Z,5.88
2022-11-25T05:27:31.540Z,5.98
2022-11-25T05:28:13.699Z,6.00
2022-11-25T05:28:54.578Z,5.94
2022-11-25T05:29:35.672Z,5.95
2022-11-25T05:30:17.524Z,5.85
2022-11-25T05:30:57.831Z,5.87
2022-11-25T05:31:37.566Z,5.78
2022-11-25T05:32:18.640Z,5.78
2022-11-25T05:32:59.503Z,5.79
2022-11-25T05:33:41.807Z,5.80
2022-11-25T05:34:22.522Z,5.82
2022-11-25T05:35:02.600Z,5.85
2022-11-25T05:35:43.563Z,5.71
2022-11-25T05:36:23.728Z,5.79
2022-11-25T05:37:04.546Z,5.78
2022-11-25T05:37:45.657Z,5.76
2022-11-25T05:38:25.508Z,5.82
2022-11-25T05:39:06.659Z,5.77
2022-11-25T05:39:47.511Z,5.65
2022-11-25T05:40:27.604Z,5.64
2022-11-25T05:41:11.535Z,5.74
2022-11-25T05:41:51.568Z,5.66
2022-11-25T05:42:32.547Z,5.73
2022-11-25T05:43:12.632Z,5.74
2022-11-25T05:43:54.508Z,5.75
2022-11-25T05:44:34.603Z,5.75
2022-11-25T05:45:15.529Z,5.65
2022-11-25T05:45:55.661Z,5.74
2022-11-25T05:46:36.559Z,5.66
2022-11-25T05:47:17.771Z,5.75
2022-11-25T05:47:58.780Z,5.76
2022-11-25T05:48:40.797Z,5.71
2022-11-25T05:49:21.532Z,5.70
2022-11-25T05:50:01.576Z,5.55
2022-11-25T05:50:43.472Z,5.60
2022-11-25T05:51:23.694Z,5.65
2022-11-25T05:52:04.496Z,5.64
2022-11-25T05:52:44.614Z,5.74
2022-11-25T05:53:24.506Z,5.68
2022-11-25T05:54:04.560Z,5.72
2022-11-25T05:54:45.512Z,5.64
2022-11-25T05:55:25.512Z,5.57
2022-11-25T05:56:09.479Z,5.57
2022-11-25T05:56:50.611Z,5.54
2022-11-25T05:57:30.497Z,5.59
2022-11-25T05:58:11.621Z,5.54
2022-11-25T05:58:52.509Z,5.54
2022-11-25T05:59:46.453Z,5.51
2022-11-25T06:00:41.474Z,5.45
2022-11-25T06:01:35.523Z,5.49
2022-11-25T06:02:29.791Z,5.50
2022-11-25T06:03:23.547Z,5.40
2022-11-25T06:04:12.604Z,5.46
2022-11-25T06:04:46.755Z,5.52
2022-11-25T06:05:33.460Z,5.55
2022-11-25T06:06:07.715Z,5.52
2022-11-25T06:06:54.463Z,5.35
2022-11-25T06:07:28.887Z,5.44
2022-11-25T06:08:16.489Z,5.60
2022-11-25T06:08:51.677Z,5.58
2022-11-25T06:09:31.483Z,5.64
2022-11-25T06:10:12.590Z,5.72
2022-11-25T06:10:53.532Z,5.78
2022-11-25T06:11:33.602Z,5.72
2022-11-25T06:12:14.471Z,5.73
2022-11-25T06:12:54.521Z,5.74
2022-11-25T06:13:35.484Z,5.76
2022-11-25T06:14:17.756Z,5.69
2022-11-25T06:14:58.518Z,5.76
2022-11-25T06:15:40.763Z,5.76
2022-11-25T06:16:27.513Z,5.73
2022-11-25T06:17:07.580Z,5.64
2022-11-25T06:17:47.467Z,5.71
2022-11-25T06:18:27.498Z,5.62
2022-11-25T06:19:12.437Z,5.67
2022-11-25T06:19:53.495Z,5.73
2022-11-25T06:20:34.480Z,5.77
2022-11-25T06:21:15.537Z,5.85
2022-11-25T06:21:55.472Z,5.94
2022-11-25T06:22:36.502Z,5.91
2022-11-25T06:23:16.450Z,5.72
2022-11-25T06:23:56.458Z,5.82
2022-11-25T06:24:37.591Z,5.86
2022-11-25T06:25:18.505Z,5.77
2022-11-25T06:25:59.521Z,5.70
2022-11-25T06:26:40.669Z,5.69
2022-11-25T06:27:21.453Z,5.67
2022-11-25T06:28:12.831Z,5.62
2022-11-25T06:28:54.436Z,5.74
2022-11-25T06:29:35.788Z,5.77
2022-11-25T06:30:17.458Z,5.76
2022-11-25T06:30:57.534Z,5.71
2022-11-25T06:31:37.563Z,5.83
2022-11-25T06:32:17.484Z,5.86
2022-11-25T06:32:58.447Z,5.89
2022-11-25T06:33:39.710Z,5.88
2022-11-25T06:34:19.460Z,5.90
2022-11-25T06:35:00.596Z,5.92
2022-11-25T06:35:40.448Z,5.90
2022-11-25T06:36:20.538Z,5.82
2022-11-25T06:37:01.447Z,5.74
2022-11-25T06:37:41.478Z,5.86
2022-11-25T06:38:21.490Z,5.93
2022-11-25T06:39:01.498Z,5.92
2022-11-25T06:39:42.480Z,5.59
2022-11-25T06:40:22.518Z,5.72
2022-11-25T06:41:10.426Z,5.75
2022-11-25T06:41:50.516Z,5.64
2022-11-25T06:42:30.482Z,5.57
2022-11-25T06:43:11.532Z,5.65
2022-11-25T06:43:51.394Z,5.64
2022-11-25T06:44:31.483Z,5.51
2022-11-25T06:45:13.416Z,5.50
2022-11-25T06:45:53.543Z,5.53
2022-11-25T06:46:33.479Z,5.58
2022-11-25T06:47:13.553Z,5.59
2022-11-25T06:47:53.456Z,5.64
2022-11-25T06:48:34.467Z,5.66
2022-11-25T06:49:15.413Z,5.58
2022-11-25T06:49:56.572Z,5.63
2022-11-25T06:50:36.431Z,5.56
2022-11-25T06:51:21.476Z,5.60
2022-11-25T06:52:01.409Z,5.67
2022-11-25T06:52:41.486Z,5.63
2022-11-25T06:53:24.237Z,5.60
2022-11-25T06:54:04.535Z,5.51
2022-11-25T06:54:47.460Z,5.47
2022-11-25T06:55:27.491Z,5.53
2022-11-25T06:56:21.523Z,5.48
2022-11-25T06:57:01.822Z,5.47
2022-11-25T06:57:41.431Z,5.51
2022-11-25T06:58:35.878Z,5.51
2022-11-25T06:59:31.539Z,5.57
2022-11-25T07:00:26.407Z,5.55
2022-11-25T07:01:33.438Z,5.75
2022-11-25T07:02:59.503Z,5.79
2022-11-25T07:03:47.423Z,5.77
2022-11-25T07:04:21.467Z,5.82
2022-11-25T07:05:08.412Z,5.84
2022-11-25T07:05:42.499Z,5.74
2022-11-25T07:06:30.432Z,5.84
2022-11-25T07:07:04.452Z,5.84
2022-11-25T07:07:51.464Z,5.85
2022-11-25T07:08:28.340Z,5.82
2022-11-25T07:09:13.431Z,5.86
2022-11-25T07:09:53.547Z,5.91
2022-11-25T07:10:33.393Z,5.99
2022-11-25T07:11:36.630Z,5.94
2022-11-25T07:12:18.485Z,5.97
2022-11-25T07:12:59.724Z,5.99
2022-11-25T07:13:40.423Z,5.98
2022-11-25T07:14:29.414Z,5.93
2022-11-25T07:15:24.388Z,6.03
2022-11-25T07:16:20.494Z,6.08
2022-11-25T07:17:14.384Z,6.01
2022-11-25T07:18:08.379Z,5.95
2022-11-25T07:19:02.396Z,5.95
2022-11-25T07:19:49.472Z,5.94
2022-11-25T07:20:25.232Z,5.82
2022-11-25T07:21:25.418Z,6.01
2022-11-25T07:21:59.533Z,6.05
2022-11-25T07:22:46.400Z,6.07
2022-11-25T07:23:20.576Z,6.00
2022-11-25T07:24:09.380Z,5.86
2022-11-25T07:24:43.444Z,5.99
2022-11-25T07:25:27.868Z,5.92
2022-11-25T07:26:19.568Z,5.99
2022-11-25T07:27:00.388Z,6.03
2022-11-25T07:27:40.415Z,6.03
2022-11-25T07:28:20.401Z,5.98
2022-11-25T07:29:02.471Z,6.08
2022-11-25T07:31:22.233Z,6.06
2022-11-25T07:31:45.447Z,6.13
2022-11-25T07:32:32.412Z,6.16
2022-11-25T07:33:06.495Z,5.95
2022-11-25T07:33:53.373Z,6.03
2022-11-25T07:34:27.496Z,6.11
2022-11-25T07:35:14.381Z,5.97
2022-11-25T07:36:02.508Z,6.16
2022-11-25T07:36:36.441Z,6.10
2022-11-25T07:37:24.467Z,6.14
2022-11-25T07:37:58.157Z,6.17
2022-11-25T07:38:47.372Z,6.07
2022-11-25T07:39:23.273Z,6.04
2022-11-25T07:40:10.368Z,6.05
2022-11-25T07:40:44.190Z,5.98
2022-11-25T07:41:31.427Z,5.97
2022-11-25T07:42:05.407Z,5.84
2022-11-25T07:42:39.053Z,5.81
2022-11-25T07:43:19.344Z,5.91
2022-11-25T07:43:55.499Z,5.96
2022-11-25T07:44:29.171Z,5.98
2022-11-25T07:45:09.367Z,5.99
2022-11-25T07:45:43.430Z,5.98
2022-11-25T07:46:44.486Z,5.99
2022-11-25T07:47:25.500Z,6.08
2022-11-25T07:48:05.378Z,6.07
2022-11-25T07:48:46.430Z,6.10
2022-11-25T07:49:31.444Z,6.10
2022-11-25T07:50:12.375Z,6.10
2022-11-25T07:50:53.404Z,6.12
2022-11-25T07:51:40.409Z,6.10
2022-11-25T07:52:21.551Z,5.98
2022-11-25T07:53:01.422Z,5.92
2022-11-25T07:53:41.351Z,5.98
2022-11-25T07:54:22.470Z,5.99
2022-11-25T07:55:02.359Z,5.97
2022-11-25T07:55:42.365Z,6.01
2022-11-25T07:56:23.342Z,6.02
2022-11-25T07:57:04.414Z,5.80
2022-11-25T07:57:44.396Z,6.11
2022-11-25T07:58:24.466Z,6.08
2022-11-25T07:59:04.348Z,6.10
2022-11-25T07:59:44.508Z,6.12
2022-11-25T08:00:25.372Z,6.18
2022-11-25T08:01:10.944Z,6.12
2022-11-25T08:01:51.386Z,5.96
2022-11-25T08:02:31.442Z,6.01
2022-11-25T08:03:11.434Z,6.08
2022-11-25T08:03:53.427Z,6.04
2022-11-25T08:04:33.353Z,6.02
2022-11-25T08:05:14.449Z,6.06
2022-11-25T08:05:55.369Z,6.08
2022-11-25T08:06:36.372Z,6.03
2022-11-25T08:07:18.373Z,5.97
2022-11-25T08:07:58.428Z,5.97
2022-11-25T08:08:39.402Z,5.94
2022-11-25T08:09:24.495Z,5.91
2022-11-25T08:10:04.373Z,6.02
2022-11-25T08:10:47.469Z,5.97
2022-11-25T08:11:35.344Z,5.99
2022-11-25T08:12:15.389Z,6.03
2022-11-25T08:12:55.347Z,6.08
2022-11-25T08:13:35.357Z,6.02
2022-11-25T08:14:16.387Z,6.05
2022-11-25T08:14:56.585Z,6.00
2022-11-25T08:15:39.426Z,5.94
2022-11-25T08:16:21.530Z,6.02
2022-11-25T08:17:01.405Z,6.00
2022-11-25T08:17:41.411Z,5.96
2022-11-25T08:18:21.384Z,6.02
2022-11-25T08:19:02.402Z,5.99
2022-11-25T08:19:43.354Z,5.91
2022-11-25T08:20:24.371Z,5.92
2022-11-25T08:21:14.326Z,5.85
2022-11-25T08:21:54.828Z,5.88
2022-11-25T08:22:35.403Z,5.89
2022-11-25T08:23:15.395Z,5.94
2022-11-25T08:24:02.388Z,6.05
2022-11-25T08:24:36.416Z,6.01
2022-11-25T08:25:17.371Z,5.97
2022-11-25T08:25:57.473Z,5.90
2022-11-25T08:26:44.366Z,5.95
2022-11-25T08:27:24.471Z,6.04
2022-11-25T08:28:08.309Z,5.99
2022-11-25T08:28:49.431Z,6.05
2022-11-25T08:29:30.321Z,5.98
2022-11-25T08:30:11.501Z,6.03
2022-11-25T08:30:51.398Z,5.93
2022-11-25T08:31:38.508Z,6.01
2022-11-25T08:32:18.339Z,5.92
2022-11-25T08:33:00.181Z,6.03
2022-11-25T08:33:41.300Z,6.07
2022-11-25T08:34:31.433Z,6.15
2022-11-25T08:35:13.310Z,6.17
2022-11-25T08:36:07.444Z,6.16
2022-11-25T08:37:01.314Z,6.18
2022-11-25T08:37:55.385Z,6.22
2022-11-25T08:38:49.352Z,6.29
2022-11-25T08:39:52.179Z,6.34
2022-11-25T08:40:49.348Z,6.35
2022-11-25T08:41:42.343Z,6.35
2022-11-25T08:42:22.396Z,6.43
2022-11-25T08:43:02.315Z,6.45
2022-11-25T08:43:43.359Z,6.31
2022-11-25T08:44:24.305Z,6.34
2022-11-25T08:45:04.436Z,6.39
2022-11-25T08:45:46.390Z,6.46
2022-11-25T08:46:30.623Z,6.39
2022-11-25T08:47:10.415Z,6.34
2022-11-25T08:47:51.532Z,6.39
2022-11-25T08:48:31.318Z,6.29
2022-11-25T08:49:13.509Z,6.29
2022-11-25T08:50:01.301Z,6.39
2022-11-25T08:50:41.474Z,6.52
2022-11-25T08:51:28.352Z,6.46
2022-11-25T08:52:09.455Z,6.41
2022-11-25T08:52:49.346Z,6.44
2022-11-25T08:53:29.385Z,6.52
2022-11-25T08:54:11.363Z,6.59
2022-11-25T08:54:51.449Z,6.57
2022-11-25T08:55:33.292Z,6.54
2022-11-25T08:56:14.971Z,6.52
2022-11-25T08:56:56.316Z,6.61
2022-11-25T08:57:36.369Z,6.65
2022-11-25T08:58:19.343Z,6.64
2022-11-25T08:59:00.367Z,6.55
2022-11-25T08:59:40.430Z,6.73
2022-11-25T09:00:21.347Z,6.75
2022-11-25T09:01:02.273Z,6.63
2022-11-25T09:01:42.531Z,6.71
2022-11-25T09:02:24.330Z,6.76
2022-11-25T09:03:04.652Z,6.73
2022-11-25T09:03:49.302Z,6.78
2022-11-25T09:04:29.335Z,6.68
2022-11-25T09:05:10.303Z,6.80
2022-11-25T09:05:51.309Z,6.70
2022-11-25T09:06:33.303Z,6.91
2022-11-25T09:07:13.491Z,6.89
2022-11-25T09:07:54.341Z,6.91
2022-11-25T09:08:34.291Z,6.98
2022-11-25T09:09:22.337Z,6.97
2022-11-25T09:09:56.969Z,6.99
2022-11-25T09:10:45.463Z,6.94
2022-11-25T09:11:19.162Z,6.93
2022-11-25T09:12:07.281Z,6.92
2022-11-25T09:12:41.113Z,7.00
2022-11-25T09:13:29.282Z,6.98
2022-11-25T09:14:03.063Z,7.09
2022-11-25T09:14:44.303Z,7.05
2022-11-25T09:15:18.344Z,7.10
2022-11-25T09:15:52.275Z,7.02
2022-11-25T09:16:32.436Z,6.78
2022-11-25T09:17:06.355Z,6.93
2022-11-25T09:17:40.995Z,6.92
2022-11-25T09:18:22.278Z,6.96
2022-11-25T09:18:56.614Z,6.76
2022-11-25T09:19:30.970Z,6.96
2022-11-25T09:20:13.323Z,7.01
2022-11-25T09:20:47.425Z,6.99
2022-11-25T09:21:20.971Z,7.09
2022-11-25T09:22:02.283Z,6.85
2022-11-25T09:22:36.339Z,7.01
2022-11-25T09:23:10.090Z,7.06
2022-11-25T09:23:51.284Z,7.09
2022-11-25T09:24:25.323Z,7.04
2022-11-25T09:24:59.021Z,7.14
2022-11-25T09:25:40.275Z,7.22
2022-11-25T09:26:15.339Z,7.24
2022-11-25T09:26:49.406Z,7.23
2022-11-25T09:27:30.275Z,7.18
2022-11-25T09:28:04.348Z,7.17
2022-11-25T09:28:38.014Z,7.12
2022-11-25T09:29:20.284Z,7.00
2022-11-25T09:29:54.391Z,7.09
2022-11-25T09:30:29.007Z,7.21
2022-11-25T09:31:16.369Z,7.17
2022-11-25T09:31:54.679Z,7.23
2022-11-25T09:32:28.983Z,7.13
2022-11-25T09:33:09.271Z,7.18
2022-11-25T09:33:43.485Z,7.12